createdAt,value
2022-08-29T00:00:19.428Z,16.70
2022-08-29T00:02:48.695Z,16.70
2022-08-29T00:05:15.865Z,16.70
2022-08-29T00:07:42.488Z,16.70
2022-08-29T00:10:09.498Z,16.80
2022-08-29T00:12:37.009Z,16.70
2022-08-29T00:15:06.466Z,16.70
2022-08-29T00:17:33.372Z,16.70
2022-08-29T00:20:00.059Z,16.70
2022-08-29T00:22:26.783Z,16.70
2022-08-29T00:24:53.335Z,16.70
2022-08-29T00:27:19.884Z,16.70
2022-08-29T00:29:46.448Z,16.80
2022-08-29T00:32:13.218Z,16.80
2022-08-29T00:34:39.954Z,16.80
2022-08-29T00:37:06.558Z,16.70
2022-08-29T00:39:34.032Z,16.70
2022-08-29T00:42:01.321Z,16.80
2022-08-29T00:44:28.595Z,16.70
2022-08-29T00:46:58.512Z,16.80
2022-08-29T00:49:58.199Z,16.70
2022-08-29T00:52:33.722Z,16.80
2022-08-29T00:55:02.868Z,16.80
2022-08-29T00:57:32.421Z,16.80
2022-08-29T00:59:59.808Z,16.80
2022-08-29T01:02:26.516Z,16.70
2022-08-29T01:04:53.263Z,16.70
2022-08-29T01:07:20.295Z,16.70
2022-08-29T01:09:47.276Z,16.70
2022-08-29T01:12:19.247Z,16.70
2022-08-29T01:14:55.722Z,16.70
2022-08-29T01:17:27.905Z,16.70
2022-08-29T01:20:03.733Z,16.70
2022-08-29T01:22:56.927Z,16.70
2022-08-29T01:25:27.229Z,16.70
2022-08-29T01:28:14.783Z,16.70
2022-08-29T01:31:05.787Z,16.70
2022-08-29T01:33:43.880Z,16.70
2022-08-29T01:36:14.724Z,16.70
2022-08-29T01:38:41.680Z,16.70
2022-08-29T01:41:10.275Z,16.70
2022-08-29T01:43:45.860Z,16.70
2022-08-29T01:46:18.244Z,16.70
2022-08-29T01:48:45.767Z,16.70
2022-08-29T01:51:13.594Z,16.70
2022-08-29T01:53:41.124Z,16.70
2022-08-29T01:56:20.244Z,16.70
2022-08-29T01:58:48.596Z,16.60
2022-08-29T02:01:19.019Z,16.70
2022-08-29T02:03:48.830Z,16.60
2022-08-29T02:06:15.456Z,16.70
2022-08-29T02:08:44.036Z,16.70
2022-08-29T02:11:12.172Z,16.70
2022-08-29T02:13:45.803Z,16.70
2022-08-29T02:16:13.298Z,16.70
2022-08-29T02:18:42.320Z,16.70
2022-08-29T02:21:10.203Z,16.70
2022-08-29T02:23:38.922Z,16.70
2022-08-29T02:26:06.087Z,16.70
2022-08-29T02:28:33.600Z,16.70
2022-08-29T02:31:00.235Z,16.70
2022-08-29T02:33:27.103Z,16.70
2022-08-29T02:35:55.636Z,16.70
2022-08-29T02:38:24.444Z,16.70
2022-08-29T02:40:51.624Z,16.70
2022-08-29T02:43:19.456Z,16.70
2022-08-29T02:45:47.496Z,16.70
2022-08-29T02:48:14.292Z,16.70
2022-08-29T02:50:43.581Z,16.70
2022-08-29T02:53:11.493Z,16.70
2022-08-29T02:55:38.629Z,16.70
2022-08-29T02:58:05.780Z,16.70
2022-08-29T03:00:33.815Z,16.70
2022-08-29T03:03:00.731Z,16.80
2022-08-29T03:05:30.416Z,16.80
2022-08-29T03:07:57.947Z,16.70
2022-08-29T03:10:25.596Z,16.70
2022-08-29T03:12:52.186Z,16.80
2022-08-29T03:15:19.730Z,16.70
2022-08-29T03:17:46.582Z,16.70
2022-08-29T03:20:16.261Z,16.80
2022-08-29T03:22:42.880Z,16.80
2022-08-29T03:25:10.569Z,16.70
2022-08-29T03:27:37.160Z,16.70
2022-08-29T03:30:04.904Z,16.80
2022-08-29T03:32:31.718Z,16.70
2022-08-29T03:34:58.280Z,16.70
2022-08-29T03:37:27.096Z,16.70
2022-08-29T03:39:54.742Z,16.80
2022-08-29T03:42:21.681Z,16.70
2022-08-29T03:44:48.265Z,16.70
2022-08-29T03:47:14.880Z,16.80
2022-08-29T03:49:41.577Z,16.70
2022-08-29T03:52:09.467Z,16.70
2022-08-29T03:54:37.197Z,16.70
2022-08-29T03:57:07.879Z,16.70
2022-08-29T03:59:35.108Z,16.70
2022-08-29T04:02:01.901Z,16.70
2022-08-29T04:04:47.441Z,16.70
2022-08-29T04:07:14.756Z,16.70
2022-08-29T04:09:41.861Z,16.60
2022-08-29T04:12:11.575Z,16.70
2022-08-29T04:14:41.505Z,16.60
2022-08-29T04:17:10.167Z,16.70
2022-08-29T04:19:37.184Z,16.60
2022-08-29T04:22:05.164Z,16.60
2022-08-29T04:24:33.505Z,16.60
2022-08-29T04:27:00.274Z,16.60
2022-08-29T04:29:27.570Z,16.60
2022-08-29T04:31:54.662Z,16.60
2022-08-29T04:34:21.351Z,16.60
2022-08-29T04:36:48.572Z,16.60
2022-08-29T04:39:16.197Z,16.60
2022-08-29T04:41:43.128Z,16.60
2022-08-29T04:44:11.346Z,16.60
2022-08-29T04:46:38.748Z,16.60
2022-08-29T04:49:05.415Z,16.60
2022-08-29T04:51:34.278Z,16.50
2022-08-29T04:54:01.407Z,16.50
2022-08-29T04:56:28.015Z,16.50
2022-08-29T04:58:56.396Z,16.50
2022-08-29T05:01:26.111Z,16.50
2022-08-29T05:03:54.257Z,16.50
2022-08-29T05:06:22.850Z,16.50
2022-08-29T05:08:55.092Z,16.50
2022-08-29T05:11:28.609Z,16.50
2022-08-29T05:13:55.233Z,16.50
2022-08-29T05:16:21.950Z,16.60
2022-08-29T05:18:48.642Z,16.60
2022-08-29T05:21:27.578Z,16.60
2022-08-29T05:23:56.462Z,16.60
2022-08-29T05:26:24.707Z,16.60
2022-08-29T05:28:51.511Z,16.60
2022-08-29T05:31:18.902Z,16.60
2022-08-29T05:33:45.494Z,16.60
2022-08-29T05:36:12.417Z,16.60
2022-08-29T05:38:39.026Z,16.60
2022-08-29T05:41:06.123Z,16.60
2022-08-29T05:43:34.366Z,16.60
2022-08-29T05:46:03.565Z,16.60
2022-08-29T05:48:31.149Z,16.70
2022-08-29T05:50:58.591Z,16.70
2022-08-29T05:53:26.025Z,16.70
2022-08-29T05:55:53.251Z,16.70
2022-08-29T05:58:20.346Z,16.80
2022-08-29T06:00:48.507Z,16.80
2022-08-29T06:03:16.323Z,16.80
2022-08-29T06:05:43.280Z,16.90
2022-08-29T06:08:10.106Z,16.90
2022-08-29T06:10:41.872Z,17.00
2022-08-29T06:13:08.492Z,17.00
2022-08-29T06:15:35.223Z,17.00
2022-08-29T06:18:02.188Z,17.00
2022-08-29T06:20:28.807Z,17.00
2022-08-29T06:22:55.373Z,17.00
2022-08-29T06:25:38.472Z,17.00
2022-08-29T06:28:06.360Z,16.90
2022-08-29T06:30:33.945Z,16.90
2022-08-29T06:33:01.766Z,16.90
2022-08-29T06:35:28.613Z,16.90
2022-08-29T06:37:55.262Z,16.90
2022-08-29T06:40:23.130Z,16.90
2022-08-29T06:42:49.735Z,16.90
2022-08-29T06:45:16.653Z,16.90
2022-08-29T06:47:45.437Z,17.00
2022-08-29T06:50:11.997Z,17.00
2022-08-29T06:52:38.622Z,17.00
2022-08-29T06:55:05.732Z,17.10
2022-08-29T06:57:32.289Z,17.10
2022-08-29T06:59:58.879Z,17.20
2022-08-29T07:02:25.503Z,17.20
2022-08-29T07:04:52.173Z,17.30
2022-08-29T07:07:18.939Z,17.40
2022-08-29T07:09:45.503Z,17.40
2022-08-29T07:12:12.084Z,17.50
2022-08-29T07:14:38.705Z,17.60
2022-08-29T07:17:06.265Z,17.70
2022-08-29T07:19:32.836Z,17.80
2022-08-29T07:21:59.557Z,17.80
2022-08-29T07:24:26.713Z,17.90
2022-08-29T07:26:53.337Z,18.00
2022-08-29T07:29:21.332Z,18.00
2022-08-29T07:31:48.489Z,18.00
2022-08-29T07:34:15.434Z,18.10
2022-08-29T07:36:42.215Z,18.10
2022-08-29T07:39:15.864Z,18.20
2022-08-29T07:41:43.675Z,18.20
2022-08-29T07:44:11.932Z,18.20
2022-08-29T07:46:38.943Z,18.30
2022-08-29T07:49:06.982Z,18.40
2022-08-29T07:51:34.608Z,18.40
2022-08-29T07:54:01.460Z,18.50
2022-08-29T07:56:37.798Z,18.60
2022-08-29T07:59:05.570Z,18.70
2022-08-29T08:01:33.022Z,18.70
2022-08-29T08:03:59.654Z,18.80
2022-08-29T08:06:27.641Z,18.90
2022-08-29T08:08:55.283Z,19.00
2022-08-29T08:11:23.265Z,19.10
2022-08-29T08:13:51.015Z,19.20
2022-08-29T08:16:21.397Z,19.30
2022-08-29T08:18:49.026Z,19.40
2022-08-29T08:21:15.923Z,19.50
2022-08-29T08:23:43.546Z,19.60
2022-08-29T08:26:11.648Z,19.70
2022-08-29T08:28:38.878Z,19.80
2022-08-29T08:31:07.504Z,19.80
2022-08-29T08:36:04.093Z,19.90
2022-08-29T08:41:07.040Z,19.90
2022-08-29T08:43:55.792Z,20.00
2022-08-29T08:46:37.507Z,20.10
2022-08-29T08:49:32.312Z,20.20
2022-08-29T08:52:06.995Z,20.30
2022-08-29T08:54:45.632Z,20.50
2022-08-29T09:02:47.943Z,20.60
2022-08-29T09:10:30.270Z,20.80
2022-08-29T09:13:19.377Z,21.10
2022-08-29T09:15:48.583Z,21.00
2022-08-29T09:18:23.992Z,21.10
2022-08-29T09:20:50.831Z,21.20
2022-08-29T09:23:37.049Z,21.30
2022-08-29T09:26:03.639Z,21.40
2022-08-29T09:28:30.482Z,21.50
2022-08-29T09:36:47.847Z,21.70
2022-08-29T09:39:16.900Z,21.90
2022-08-29T09:41:45.081Z,21.90
2022-08-29T09:44:30.597Z,21.80
2022-08-29T09:47:20.951Z,21.90
2022-08-29T09:50:20.001Z,21.90
2022-08-29T09:55:34.939Z,22.00
2022-08-29T09:58:10.110Z,22.00
2022-08-29T10:00:40.900Z,22.00
2022-08-29T10:03:18.871Z,22.10
2022-08-29T15:41:50.027Z,22.20
2022-08-29T15:44:17.049Z,22.20
2022-08-29T15:46:50.846Z,22.30
2022-08-29T15:49:19.988Z,22.10
2022-08-29T15:51:48.216Z,22.10
2022-08-29T15:54:15.580Z,22.00
2022-08-29T15:56:42.708Z,21.80
2022-08-29T15:59:11.481Z,21.70
2022-08-29T16:01:41.135Z,21.70
2022-08-29T16:04:09.597Z,21.70
2022-08-29T16:09:04.493Z,21.50
2022-08-29T16:11:46.678Z,21.50
2022-08-29T16:14:58.191Z,21.50
2022-08-29T16:17:01.011Z,21.40
2022-08-29T16:19:27.903Z,21.50
2022-08-29T16:21:59.710Z,21.50
2022-08-29T16:24:28.341Z,21.50
2022-08-29T16:26:55.367Z,21.50
2022-08-29T16:29:26.459Z,21.50
2022-08-29T16:31:56.046Z,21.40
2022-08-29T16:34:24.976Z,21.40
2022-08-29T16:36:56.329Z,21.20
2022-08-29T16:39:23.031Z,21.10
2022-08-29T16:41:49.639Z,21.10
2022-08-29T16:44:16.240Z,21.00
2022-08-29T16:46:42.824Z,20.90
2022-08-29T16:49:09.405Z,20.90
2022-08-29T16:51:35.951Z,21.00
2022-08-29T16:54:02.803Z,21.00
2022-08-29T16:59:00.039Z,20.60
2022-08-29T17:03:54.916Z,20.50
2022-08-29T17:08:48.779Z,20.40
2022-08-29T17:13:43.173Z,20.20
2022-08-29T17:16:10.609Z,20.10
2022-08-29T17:18:38.701Z,20.00
2022-08-29T17:23:35.960Z,20.00
2022-08-29T17:26:05.909Z,19.80
2022-08-29T17:28:33.731Z,19.80
2022-08-29T17:31:00.607Z,19.80
2022-08-29T17:35:55.936Z,19.70
2022-08-29T17:38:23.327Z,19.60
2022-08-29T17:45:47.317Z,19.50
2022-08-29T17:48:14.106Z,19.50
2022-08-29T17:53:07.832Z,19.40
2022-08-29T17:55:34.660Z,19.40
2022-08-29T17:58:01.324Z,19.20
2022-08-29T18:00:28.598Z,19.20
2022-08-29T18:02:55.250Z,19.00
2022-08-29T18:07:49.025Z,18.90
2022-08-29T18:10:16.588Z,18.80
2022-08-29T18:12:43.168Z,18.80
2022-08-29T18:15:11.522Z,18.70
2022-08-29T18:22:34.738Z,18.40
2022-08-29T18:25:01.763Z,18.40
2022-08-29T18:27:28.735Z,18.40
2022-08-29T18:29:57.064Z,18.30
2022-08-29T18:32:25.501Z,18.30
2022-08-29T18:34:52.184Z,18.10
2022-08-29T18:37:18.744Z,18.00
2022-08-29T18:39:45.849Z,18.10
2022-08-29T18:44:57.536Z,17.80
2022-08-29T18:47:26.959Z,17.80
2022-08-29T18:52:39.667Z,17.80
2022-08-29T18:55:06.907Z,17.80
2022-08-29T18:57:33.607Z,17.60
2022-08-29T19:00:00.199Z,17.60
2022-08-29T19:02:28.978Z,17.50
2022-08-29T19:04:55.656Z,17.40
2022-08-29T19:07:24.140Z,17.60
2022-08-29T19:09:52.890Z,17.80
2022-08-29T19:17:13.612Z,17.30
2022-08-29T19:19:59.207Z,17.20
2022-08-29T19:30:08.391Z,17.00
2022-08-29T19:32:35.259Z,17.00
2022-08-29T19:35:03.037Z,17.00
2022-08-29T19:37:29.643Z,16.90
2022-08-29T19:39:58.481Z,16.80
2022-08-29T19:42:25.161Z,16.70
2022-08-29T19:44:51.763Z,16.70
2022-08-29T19:47:18.372Z,16.60
2022-08-29T19:49:48.607Z,16.60
2022-08-29T19:52:16.188Z,16.50
2022-08-29T19:54:43.520Z,16.50
2022-08-29T19:57:10.234Z,16.50
2022-08-29T19:59:42.287Z,16.40
2022-08-29T20:04:38.387Z,16.30
2022-08-29T20:07:05.400Z,16.40
2022-08-29T20:09:32.076Z,16.20
2022-08-29T20:11:59.077Z,16.20
2022-08-29T20:14:25.708Z,16.20
2022-08-29T20:16:52.388Z,16.30
2022-08-29T20:19:21.195Z,16.30
2022-08-29T20:21:49.896Z,16.00
2022-08-29T20:24:17.301Z,16.00
2022-08-29T20:26:46.623Z,16.00
2022-08-29T20:29:13.355Z,15.90
2022-08-29T20:31:40.400Z,15.90
